| time (UTC) | temp C | wind direction | speed KPH | gust KPH | rain 1hr cm | rain 24hr cm | rain mn cm | humidity % | barometer mb |
| 20260505173548 | 22 | 190 | 12.9 | 22.5 | 0.00 | 0.00 | 0.00 | 30 | 1015.5 |
| 20260505173055 | 22 | 190 | 11.3 | 27.4 | 0.00 | 0.00 | 0.00 | 36 | 1015.5 |
| 20260505172548 | 22 | 190 | 9.7 | 30.6 | 0.00 | 0.00 | 0.00 | 29 | 1015.6 |
| 20260505172048 | 22 | 190 | 14.5 | 30.6 | 0.00 | 0.00 | 0.00 | 40 | 1015.6 |
| 20260505171551 | 22 | 190 | 6.4 | 17.7 | 0.00 | 0.00 | 0.00 | 40 | 1015.6 |
| 20260505171048 | 22 | 190 | 4.8 | 14.5 | 0.00 | 0.00 | 0.00 | 44 | 1015.6 |
| 20260505170547 | 21 | 190 | 6.4 | 14.5 | 0.00 | 0.00 | 0.00 | 44 | 1015.7 |
| 20260505170126 | 21 | 190 | 8.0 | 20.9 | 0.00 | 0.00 | 0.00 | 47 | 1015.7 |
| 20260505165549 | 21 | 190 | 9.7 | 20.9 | 0.00 | 0.00 | 0.00 | 46 | 1015.8 |
| 20260505165049 | 21 | 190 | 4.8 | 17.7 | 0.00 | 0.00 | 0.00 | 48 | 1015.8 |
| 20260505164552 | 21 | 190 | 9.7 | 24.1 | 0.00 | 0.00 | 0.00 | 49 | 1016.0 |
| 20260505164051 | 21 | 190 | 1.6 | 24.1 | 0.00 | 0.00 | 0.00 | 51 | 1015.9 |
| 20260505163549 | 21 | 190 | 12.9 | 24.1 | 0.00 | 0.00 | 0.00 | 44 | 1016.1 |
| 20260505163052 | 21 | 190 | 6.4 | 16.1 | 0.00 | 0.00 | 0.00 | 47 | 1016.0 |
| 20260505162548 | 21 | 190 | 1.6 | 11.3 | 0.00 | 0.00 | 0.00 | 54 | 1016.0 |
| 20260505162048 | 21 | 190 | 4.8 | 16.1 | 0.00 | 0.00 | 0.00 | 54 | 1016.0 |
| 20260505161556 | 21 | 190 | 4.8 | 19.3 | 0.00 | 0.00 | 0.00 | 51 | 1016.1 |
| 20260505161048 | 21 | 190 | 6.4 | 19.3 | 0.00 | 0.00 | 0.00 | 56 | 1016.1 |
| 20260505160552 | 21 | 190 | 8.0 | 17.7 | 0.00 | 0.00 | 0.00 | 53 | 1016.1 |
| 20260505153057 | 20 | 190 | 11.3 | 22.5 | 0.00 | 0.00 | 0.00 | 46 | 1016.7 |
| 20260505152550 | 20 | 190 | 8.0 | 16.1 | 0.00 | 0.00 | 0.00 | 49 | 1016.8 |
| 20260505152047 | 19 | 190 | 8.0 | 19.3 | 0.00 | 0.00 | 0.00 | 47 | 1016.8 |
| 20260505151553 | 19 | 190 | 11.3 | 19.3 | 0.00 | 0.00 | 0.00 | 49 | 1017.0 |
| 20260505151048 | 19 | 190 | 9.7 | 24.1 | 0.00 | 0.00 | 0.00 | 46 | 1016.9 |
| 20260505150550 | 18 | 190 | 12.9 | 24.1 | 0.00 | 0.00 | 0.00 | 48 | 1016.9 |
| 20260505140548 | 18 | 190 | 11.3 | 22.5 | 0.00 | 0.00 | 0.00 | 49 | 1016.6 |
| 20260505124554 | 16 | 0 | 0.0 | 0.0 | 0.00 | 0.00 | 0.00 | 60 | 1016.4 |
| 20260505124047 | 16 | 0 | 0.0 | 0.0 | 0.00 | 0.00 | 0.00 | 59 | 1016.3 |
| 20260505123548 | 16 | 0 | 0.0 | 0.0 | 0.00 | 0.00 | 0.00 | 61 | 1016.2 |
| 20260505123108 | 15 | 0 | 0.0 | 0.0 | 0.00 | 0.00 | 0.00 | 62 | 1016.2 |
| 20260505122548 | 15 | 0 | 0.0 | 1.6 | 0.00 | 0.00 | 0.00 | 63 | 1016.2 |
| 20260505122047 | 15 | 0 | 0.0 | 3.2 | 0.00 | 0.00 | 0.00 | 63 | 1016.1 |
| 20260505121556 | 15 | 190 | 0.0 | 3.2 | 0.00 | 0.00 | 0.00 | 63 | 1016.2 |
| 20260505121049 | 15 | 190 | 0.0 | 0.0 | 0.00 | 0.00 | 0.00 | 62 | 1016.1 |
| 20260505120550 | 15 | 0 | 0.0 | 0.0 | 0.00 | 0.00 | 0.00 | 63 | 1016.2 |
| 20260505120050 | 14 | 0 | 0.0 | 0.0 | 0.00 | 0.00 | 0.00 | 64 | 1016.1 |
| 20260505115548 | 14 | 0 | 0.0 | 0.0 | 0.00 | 0.00 | 0.00 | 69 | 1016.1 |
| 20260505115048 | 13 | 0 | 0.0 | 0.0 | 0.00 | 0.00 | 0.00 | 69 | 1016.2 |
| 20260505114611 | 13 | 0 | 0.0 | 0.0 | 0.00 | 0.00 | 0.00 | 67 | 1016.3 |
| 20260505114048 | 12 | 0 | 0.0 | 0.0 | 0.00 | 0.00 | 0.00 | 68 | 1016.3 |
| 20260505113551 | 12 | 0 | 0.0 | 0.0 | 0.00 | 0.00 | 0.00 | 70 | 1016.1 |
| 20260505113056 | 11 | 0 | 0.0 | 0.0 | 0.00 | 0.00 | 0.00 | 70 | 1016.1 |
| 20260505112548 | 11 | 0 | 0.0 | 0.0 | 0.00 | 0.00 | 0.00 | 72 | 1016.1 |
| 20260505112048 | 11 | 0 | 0.0 | 0.0 | 0.00 | 0.00 | 0.00 | 71 | 1016.0 |
| 20260505111605 | 10 | 0 | 0.0 | 0.0 | 0.00 | 0.00 | 0.00 | 72 | 1016.0 |
| 20260505111051 | 11 | 0 | 0.0 | 0.0 | 0.00 | 0.00 | 0.00 | 71 | 1016.0 |
| 20260505110549 | 11 | 0 | 0.0 | 0.0 | 0.00 | 0.00 | 0.00 | 71 | 1016.0 |
| 20260505102048 | 10 | 0 | 0.0 | 1.6 | 0.00 | 0.00 | 0.00 | 73 | 1015.5 |
| 20260505101554 | 10 | 0 | 0.0 | 4.8 | 0.00 | 0.00 | 0.00 | 72 | 1015.5 |
| 20260505101048 | 11 | 0 | 0.0 | 4.8 | 0.00 | 0.00 | 0.00 | 69 | 1015.6 |
| 20260505100549 | 11 | 190 | 1.6 | 4.8 | 0.00 | 0.00 | 0.00 | 69 | 1015.6 |
| 20260505100055 | 11 | 0 | 0.0 | 4.8 | 0.00 | 0.00 | 0.00 | 68 | 1015.5 |
| 20260505095548 | 12 | 190 | 0.0 | 4.8 | 0.00 | 0.00 | 0.00 | 66 | 1015.5 |
| 20260505095049 | 12 | 190 | 1.6 | 4.8 | 0.00 | 0.00 | 0.00 | 66 | 1015.5 |
| 20260505094551 | 12 | 190 | 3.2 | 6.4 | 0.00 | 0.00 | 0.00 | 66 | 1015.4 |
| 20260505094049 | 12 | 190 | 4.8 | 9.7 | 0.00 | 0.00 | 0.00 | 66 | 1015.3 |
| 20260505093548 | 12 | 190 | 6.4 | 12.9 | 0.00 | 0.00 | 0.00 | 66 | 1015.3 |
| 20260505093053 | 12 | 190 | 6.4 | 12.9 | 0.00 | 0.00 | 0.00 | 65 | 1015.3 |
| 20260505092547 | 12 | 190 | 8.0 | 12.9 | 0.00 | 0.00 | 0.00 | 65 | 1015.3 |
| 20260505092049 | 12 | 190 | 8.0 | 14.5 | 0.00 | 0.00 | 0.00 | 64 | 1015.2 |
| 20260505091551 | 12 | 190 | 9.7 | 14.5 | 0.00 | 0.00 | 0.00 | 63 | 1015.3 |
| 20260505091050 | 12 | 190 | 6.4 | 11.3 | 0.00 | 0.00 | 0.00 | 63 | 1015.2 |
| 20260505090547 | 12 | 190 | 8.0 | 9.7 | 0.00 | 0.00 | 0.00 | 63 | 1015.2 |
| 20260505090059 | 12 | 190 | 4.8 | 8.0 | 0.00 | 0.00 | 0.00 | 63 | 1015.5 |
| 20260505085548 | 13 | 190 | 4.8 | 8.0 | 0.00 | 0.00 | 0.00 | 62 | 1015.6 |
| 20260505085048 | 13 | 190 | 6.4 | 9.7 | 0.00 | 0.00 | 0.00 | 63 | 1015.5 |
| 20260505084553 | 12 | 190 | 6.4 | 9.7 | 0.00 | 0.00 | 0.00 | 63 | 1015.3 |
| 20260505084047 | 13 | 190 | 8.0 | 9.7 | 0.00 | 0.00 | 0.00 | 62 | 1015.2 |
| 20260505083547 | 12 | 190 | 6.4 | 9.7 | 0.00 | 0.00 | 0.00 | 63 | 1015.2 |
| 20260505083101 | 12 | 190 | 4.8 | 6.4 | 0.00 | 0.00 | 0.00 | 64 | 1015.1 |
| 20260505082549 | 12 | 190 | 1.6 | 3.2 | 0.00 | 0.00 | 0.00 | 63 | 1015.2 |
| 20260505082048 | 12 | 190 | 0.0 | 3.2 | 0.00 | 0.00 | 0.00 | 61 | 1015.2 |
| 20260505081555 | 13 | 190 | 0.0 | 3.2 | 0.00 | 0.00 | 0.00 | 61 | 1015.1 |
| 20260505081048 | 13 | 0 | 0.0 | 6.4 | 0.00 | 0.00 | 0.00 | 60 | 1015.0 |
| 20260505080548 | 13 | 190 | 1.6 | 8.0 | 0.00 | 0.00 | 0.00 | 60 | 1014.9 |
| 20260505080054 | 13 | 190 | 1.6 | 8.0 | 0.00 | 0.00 | 0.00 | 59 | 1014.7 |
| 20260505075549 | 13 | 190 | 3.2 | 6.4 | 0.00 | 0.00 | 0.00 | 59 | 1014.7 |
| 20260505075048 | 13 | 190 | 0.0 | 4.8 | 0.00 | 0.00 | 0.00 | 59 | 1014.7 |
| 20260505074554 | 13 | 190 | 1.6 | 9.7 | 0.00 | 0.00 | 0.00 | 59 | 1014.7 |
| 20260505074048 | 13 | 190 | 1.6 | 9.7 | 0.00 | 0.00 | 0.00 | 59 | 1014.7 |
| 20260505073548 | 14 | 190 | 6.4 | 14.5 | 0.00 | 0.00 | 0.00 | 58 | 1014.7 |
| 20260505073100 | 14 | 190 | 6.4 | 14.5 | 0.00 | 0.00 | 0.00 | 57 | 1014.6 |
| 20260505072547 | 14 | 190 | 8.0 | 14.5 | 0.00 | 0.00 | 0.00 | 57 | 1014.6 |
| 20260505072048 | 14 | 190 | 8.0 | 19.3 | 0.00 | 0.00 | 0.00 | 57 | 1014.5 |
| 20260505071553 | 15 | 190 | 9.7 | 19.3 | 0.00 | 0.00 | 0.00 | 56 | 1014.5 |
| 20260505071049 | 14 | 190 | 12.9 | 19.3 | 0.00 | 0.00 | 0.00 | 56 | 1014.5 |
| 20260505070550 | 14 | 190 | 8.0 | 14.5 | 0.00 | 0.00 | 0.00 | 57 | 1014.4 |
| 20260505070055 | 14 | 190 | 6.4 | 16.1 | 0.00 | 0.00 | 0.00 | 57 | 1014.5 |
| 20260505065549 | 15 | 190 | 8.0 | 17.7 | 0.00 | 0.00 | 0.00 | 56 | 1014.5 |
| 20260505065047 | 15 | 190 | 9.7 | 17.7 | 0.00 | 0.00 | 0.00 | 55 | 1014.5 |
| 20260505064600 | 15 | 190 | 9.7 | 17.7 | 0.00 | 0.00 | 0.00 | 55 | 1014.6 |
| 20260505064049 | 15 | 190 | 9.7 | 22.5 | 0.00 | 0.00 | 0.00 | 55 | 1014.6 |
| 20260505063548 | 15 | 190 | 12.9 | 22.5 | 0.00 | 0.00 | 0.00 | 55 | 1014.6 |
| 20260505063055 | 15 | 190 | 12.9 | 24.1 | 0.00 | 0.00 | 0.00 | 54 | 1014.5 |
| 20260505062548 | 15 | 190 | 11.3 | 24.1 | 0.00 | 0.00 | 0.00 | 54 | 1014.5 |
| 20260505062048 | 15 | 190 | 9.7 | 19.3 | 0.00 | 0.00 | 0.00 | 54 | 1014.6 |
| 20260505061553 | 15 | 190 | 11.3 | 17.7 | 0.00 | 0.00 | 0.00 | 54 | 1014.6 |
| 20260505061047 | 15 | 190 | 11.3 | 17.7 | 0.00 | 0.00 | 0.00 | 54 | 1014.6 |
| 20260505060547 | 15 | 190 | 9.7 | 17.7 | 0.00 | 0.00 | 0.00 | 54 | 1014.6 |
| 20260505055547 | 15 | 190 | 9.7 | 19.3 | 0.00 | 0.00 | 0.00 | 54 | 1014.6 |
| 20260505055051 | 15 | 190 | 6.4 | 14.5 | 0.00 | 0.00 | 0.00 | 54 | 1014.6 |
| 20260505054558 | 15 | 190 | 8.0 | 22.5 | 0.00 | 0.00 | 0.00 | 54 | 1014.6 |
| 20260505054047 | 15 | 190 | 8.0 | 22.5 | 0.00 | 0.00 | 0.00 | 53 | 1014.6 |
| 20260505053548 | 15 | 190 | 9.7 | 22.5 | 0.00 | 0.00 | 0.00 | 53 | 1014.6 |
| 20260505053112 | 15 | 190 | 9.7 | 14.5 | 0.00 | 0.00 | 0.00 | 54 | 1014.4 |
| 20260505052548 | 15 | 190 | 8.0 | 12.9 | 0.00 | 0.00 | 0.00 | 54 | 1014.5 |
| 20260505052048 | 15 | 190 | 8.0 | 12.9 | 0.00 | 0.00 | 0.00 | 54 | 1014.4 |
| 20260505051550 | 15 | 190 | 8.0 | 12.9 | 0.00 | 0.00 | 0.00 | 54 | 1014.5 |
| 20260505051048 | 15 | 190 | 6.4 | 12.9 | 0.00 | 0.00 | 0.00 | 54 | 1014.6 |
| 20260505050548 | 15 | 190 | 6.4 | 9.7 | 0.00 | 0.00 | 0.00 | 54 | 1014.4 |
| 20260505041612 | 15 | 190 | 8.0 | 14.5 | 0.00 | 0.00 | 0.00 | 49 | 1014.5 |
| 20260505041049 | 15 | 190 | 6.4 | 14.5 | 0.00 | 0.00 | 0.00 | 50 | 1014.6 |
| 20260505040548 | 15 | 190 | 6.4 | 12.9 | 0.00 | 0.00 | 0.00 | 50 | 1014.6 |
| 20260505040057 | 16 | 190 | 8.0 | 17.7 | 0.00 | 0.00 | 0.00 | 50 | 1014.6 |
| 20260505035550 | 16 | 190 | 8.0 | 20.9 | 0.00 | 0.00 | 0.00 | 49 | 1014.5 |
| 20260505035050 | 16 | 190 | 9.7 | 20.9 | 0.00 | 0.00 | 0.00 | 49 | 1014.6 |
| 20260505034553 | 16 | 190 | 8.0 | 12.9 | 0.00 | 0.00 | 0.00 | 49 | 1014.7 |
| 20260505034052 | 16 | 190 | 6.4 | 20.9 | 0.00 | 0.00 | 0.00 | 49 | 1014.7 |
| 20260505033548 | 16 | 190 | 9.7 | 20.9 | 0.00 | 0.00 | 0.00 | 49 | 1014.7 |
| 20260505033051 | 16 | 190 | 11.3 | 20.9 | 0.00 | 0.00 | 0.00 | 49 | 1014.7 |
| 20260505032550 | 16 | 190 | 4.8 | 17.7 | 0.00 | 0.00 | 0.00 | 50 | 1014.8 |
| 20260505032047 | 16 | 190 | 6.4 | 17.7 | 0.00 | 0.00 | 0.00 | 50 | 1014.9 |
| 20260505031605 | 16 | 190 | 8.0 | 12.9 | 0.00 | 0.00 | 0.00 | 50 | 1015.0 |
| 20260505031050 | 16 | 190 | 8.0 | 16.1 | 0.00 | 0.00 | 0.00 | 50 | 1014.9 |
| 20260505030548 | 16 | 190 | 6.4 | 16.1 | 0.00 | 0.00 | 0.00 | 50 | 1015.0 |
| 20260505030052 | 16 | 190 | 6.4 | 14.5 | 0.00 | 0.00 | 0.00 | 51 | 1014.9 |
| 20260505025547 | 16 | 190 | 6.4 | 14.5 | 0.00 | 0.00 | 0.00 | 51 | 1014.9 |
| 20260505025051 | 16 | 190 | 6.4 | 12.9 | 0.00 | 0.00 | 0.00 | 51 | 1015.0 |
| 20260505024555 | 16 | 190 | 6.4 | 12.9 | 0.00 | 0.00 | 0.00 | 51 | 1015.0 |
| 20260505024048 | 16 | 190 | 8.0 | 14.5 | 0.00 | 0.00 | 0.00 | 51 | 1015.0 |
| 20260505023550 | 16 | 190 | 6.4 | 14.5 | 0.00 | 0.00 | 0.00 | 51 | 1015.0 |
| 20260505023058 | 16 | 190 | 8.0 | 16.1 | 0.00 | 0.00 | 0.00 | 52 | 1015.0 |
| 20260505022548 | 16 | 190 | 8.0 | 16.1 | 0.00 | 0.00 | 0.00 | 52 | 1015.0 |
| 20260505022049 | 16 | 190 | 6.4 | 16.1 | 0.00 | 0.00 | 0.00 | 53 | 1015.0 |
| 20260505021551 | 16 | 190 | 6.4 | 12.9 | 0.00 | 0.00 | 0.00 | 53 | 1015.0 |
| 20260505021047 | 16 | 190 | 6.4 | 14.5 | 0.00 | 0.00 | 0.00 | 53 | 1015.0 |
| 20260505020548 | 16 | 190 | 8.0 | 16.1 | 0.00 | 0.00 | 0.00 | 53 | 1015.0 |
| 20260505020048 | 16 | 190 | 8.0 | 16.1 | 0.00 | 0.00 | 0.00 | 54 | 1015.1 |
| 20260505015550 | 16 | 190 | 6.4 | 16.1 | 0.00 | 0.00 | 0.00 | 54 | 1015.1 |
| 20260505015048 | 16 | 190 | 6.4 | 14.5 | 0.00 | 0.00 | 0.00 | 55 | 1015.1 |
| 20260505014551 | 16 | 190 | 8.0 | 14.5 | 0.00 | 0.00 | 0.00 | 55 | 1015.0 |
| 20260505014048 | 16 | 190 | 6.4 | 11.3 | 0.00 | 0.00 | 0.00 | 56 | 1015.0 |
| 20260505013548 | 16 | 190 | 4.8 | 9.7 | 0.00 | 0.00 | 0.00 | 56 | 1015.0 |
| 20260505013059 | 16 | 190 | 4.8 | 12.9 | 0.00 | 0.00 | 0.00 | 56 | 1014.9 |
| 20260505012547 | 16 | 190 | 6.4 | 14.5 | 0.00 | 0.00 | 0.00 | 56 | 1014.9 |
| 20260505012050 | 16 | 190 | 6.4 | 17.7 | 0.00 | 0.00 | 0.00 | 56 | 1014.9 |
| 20260505011557 | 16 | 190 | 8.0 | 17.7 | 0.00 | 0.00 | 0.00 | 56 | 1014.8 |
| 20260505011053 | 16 | 190 | 4.8 | 11.3 | 0.00 | 0.00 | 0.00 | 57 | 1014.7 |
| 20260505010549 | 16 | 190 | 4.8 | 9.7 | 0.00 | 0.00 | 0.00 | 57 | 1014.7 |
| 20260505010059 | 16 | 190 | 4.8 | 11.3 | 0.00 | 0.00 | 0.00 | 57 | 1014.6 |
| 20260505005550 | 16 | 190 | 4.8 | 11.3 | 0.00 | 0.00 | 0.00 | 57 | 1014.5 |
| 20260505005050 | 17 | 190 | 6.4 | 11.3 | 0.00 | 0.00 | 0.00 | 56 | 1014.5 |
| 20260505004555 | 17 | 190 | 4.8 | 9.7 | 0.00 | 0.00 | 0.00 | 57 | 1014.5 |
| 20260505004049 | 17 | 190 | 4.8 | 11.3 | 0.00 | 0.00 | 0.00 | 57 | 1014.3 |
| 20260505003550 | 17 | 190 | 4.8 | 12.9 | 0.00 | 0.00 | 0.00 | 56 | 1014.3 |
| 20260505003059 | 17 | 190 | 4.8 | 12.9 | 0.00 | 0.00 | 0.00 | 56 | 1014.3 |
| 20260505002552 | 17 | 190 | 4.8 | 11.3 | 0.00 | 0.00 | 0.00 | 56 | 1014.3 |
| 20260505002051 | 17 | 190 | 3.2 | 8.0 | 0.00 | 0.00 | 0.00 | 56 | 1014.2 |
| 20260505001555 | 17 | 190 | 1.6 | 6.4 | 0.00 | 0.00 | 0.00 | 56 | 1014.2 |
| 20260505001050 | 17 | 190 | 1.6 | 8.0 | 0.00 | 0.00 | 0.00 | 56 | 1014.1 |
| 20260505000549 | 18 | 190 | 1.6 | 9.7 | 0.00 | 0.00 | 0.00 | 55 | 1014.2 |
| 20260505000107 | 18 | 190 | 3.2 | 9.7 | 0.00 | 0.00 | 0.00 | 54 | 1014.2 |
| 20260504235549 | 18 | 190 | 3.2 | 11.3 | 0.00 | 0.00 | 0.00 | 54 | 1014.1 |
| 20260504235050 | 18 | 190 | 1.6 | 11.3 | 0.00 | 0.00 | 0.00 | 54 | 1014.1 |
| 20260504234627 | 18 | 190 | 4.8 | 11.3 | 0.00 | 0.00 | 0.00 | 54 | 1013.9 |
| 20260504234049 | 18 | 190 | 4.8 | 11.3 | 0.00 | 0.00 | 0.00 | 53 | 1013.9 |
| 20260504233549 | 18 | 190 | 3.2 | 11.3 | 0.00 | 0.00 | 0.00 | 53 | 1014.0 |
| 20260504233057 | 18 | 0 | 1.6 | 12.9 | 0.00 | 0.00 | 0.00 | 54 | 1013.9 |
| 20260504232549 | 19 | 190 | 6.4 | 12.9 | 0.00 | 0.00 | 0.00 | 54 | 1013.7 |
| 20260504232049 | 19 | 190 | 3.2 | 12.9 | 0.00 | 0.00 | 0.00 | 53 | 1013.8 |
| 20260504231601 | 19 | 190 | 3.2 | 12.9 | 0.00 | 0.00 | 0.00 | 53 | 1013.8 |
| 20260504231050 | 20 | 190 | 4.8 | 11.3 | 0.00 | 0.00 | 0.00 | 52 | 1013.8 |
| 20260504230549 | 19 | 190 | 4.8 | 14.5 | 0.00 | 0.00 | 0.00 | 53 | 1013.7 |
| 20260504230057 | 20 | 190 | 4.8 | 14.5 | 0.00 | 0.00 | 0.00 | 53 | 1013.8 |
| 20260504225549 | 20 | 190 | 4.8 | 17.7 | 0.00 | 0.00 | 0.00 | 53 | 1013.7 |
| 20260504225046 | 20 | 190 | 8.0 | 17.7 | 0.00 | 0.00 | 0.00 | 52 | 1013.8 |
| 20260504224551 | 20 | 190 | 4.8 | 19.3 | 0.00 | 0.00 | 0.00 | 51 | 1013.9 |
| 20260504224049 | 21 | 190 | 8.0 | 19.3 | 0.00 | 0.00 | 0.00 | 51 | 1013.8 |
| 20260504223549 | 21 | 190 | 8.0 | 14.5 | 0.00 | 0.00 | 0.00 | 51 | 1013.8 |
| 20260504223054 | 20 | 190 | 6.4 | 14.5 | 0.00 | 0.00 | 0.00 | 52 | 1013.7 |
| 20260504222548 | 20 | 190 | 4.8 | 17.7 | 0.00 | 0.00 | 0.00 | 52 | 1013.8 |
| 20260504222049 | 20 | 190 | 6.4 | 19.3 | 0.00 | 0.00 | 0.00 | 52 | 1013.9 |
| 20260504221600 | 21 | 190 | 11.3 | 19.3 | 0.00 | 0.00 | 0.00 | 52 | 1013.9 |
| 20260504221050 | 21 | 190 | 9.7 | 19.3 | 0.00 | 0.00 | 0.00 | 50 | 1013.9 |
| 20260504220550 | 21 | 190 | 9.7 | 14.5 | 0.00 | 0.00 | 0.00 | 50 | 1013.8 |
| 20260504220058 | 21 | 190 | 6.4 | 27.4 | 0.00 | 0.00 | 0.00 | 50 | 1013.8 |
| 20260504215549 | 21 | 190 | 16.1 | 35.4 | 0.00 | 0.00 | 0.00 | 49 | 1013.9 |
| 20260504215049 | 21 | 190 | 12.9 | 35.4 | 0.00 | 0.00 | 0.00 | 48 | 1013.8 |
| 20260504214554 | 21 | 190 | 24.1 | 35.4 | 0.00 | 0.00 | 0.00 | 46 | 1013.8 |
| 20260504214049 | 21 | 190 | 9.7 | 19.3 | 0.00 | 0.00 | 0.00 | 50 | 1013.8 |
| 20260504213549 | 20 | 190 | 11.3 | 20.9 | 0.00 | 0.00 | 0.00 | 50 | 1013.8 |
| 20260504213053 | 20 | 190 | 8.0 | 24.1 | 0.00 | 0.00 | 0.00 | 53 | 1013.9 |
| 20260504212550 | 20 | 190 | 9.7 | 30.6 | 0.00 | 0.00 | 0.00 | 51 | 1013.9 |
| 20260504212049 | 20 | 190 | 16.1 | 30.6 | 0.00 | 0.00 | 0.00 | 50 | 1013.9 |
| 20260504211553 | 20 | 190 | 16.1 | 30.6 | 0.00 | 0.00 | 0.00 | 50 | 1013.8 |
| 20260504211052 | 20 | 190 | 8.0 | 19.3 | 0.00 | 0.00 | 0.00 | 52 | 1013.8 |
| 20260504210549 | 20 | 190 | 6.4 | 27.4 | 0.00 | 0.00 | 0.00 | 53 | 1013.8 |
| 20260504210107 | 20 | 190 | 14.5 | 27.4 | 0.00 | 0.00 | 0.00 | 51 | 1013.8 |
| 20260504205552 | 20 | 190 | 9.7 | 22.5 | 0.00 | 0.00 | 0.00 | 50 | 1013.7 |
| 20260504205050 | 20 | 190 | 9.7 | 22.5 | 0.00 | 0.00 | 0.00 | 51 | 1013.7 |
| 20260504204603 | 20 | 190 | 16.1 | 25.7 | 0.00 | 0.00 | 0.00 | 53 | 1013.8 |
| 20260504204049 | 19 | 190 | 14.5 | 27.4 | 0.00 | 0.00 | 0.00 | 53 | 1013.9 |
| 20260504203549 | 19 | 190 | 11.3 | 27.4 | 0.00 | 0.00 | 0.00 | 53 | 1013.9 |
| 20260504203054 | 19 | 190 | 14.5 | 32.2 | 0.00 | 0.00 | 0.00 | 53 | 1013.9 |
| 20260504202549 | 19 | 190 | 17.7 | 32.2 | 0.00 | 0.00 | 0.00 | 53 | 1013.9 |
| 20260504202050 | 20 | 190 | 14.5 | 24.1 | 0.00 | 0.00 | 0.00 | 51 | 1013.9 |
| 20260504201601 | 19 | 190 | 12.9 | 32.2 | 0.00 | 0.00 | 0.00 | 55 | 1014.0 |
| 20260504201049 | 19 | 190 | 17.7 | 32.2 | 0.00 | 0.00 | 0.00 | 53 | 1014.0 |
| 20260504200549 | 20 | 190 | 19.3 | 29.0 | 0.00 | 0.00 | 0.00 | 53 | 1014.1 |
| 20260504200100 | 19 | 190 | 12.9 | 27.4 | 0.00 | 0.00 | 0.00 | 52 | 1014.2 |
| 20260504195549 | 19 | 190 | 14.5 | 27.4 | 0.00 | 0.00 | 0.00 | 52 | 1014.3 |
| 20260504195049 | 19 | 190 | 14.5 | 24.1 | 0.00 | 0.00 | 0.00 | 53 | 1014.4 |
| 20260504194606 | 19 | 190 | 11.3 | 24.1 | 0.00 | 0.00 | 0.00 | 53 | 1014.5 |
| 20260504194049 | 19 | 190 | 14.5 | 24.1 | 0.00 | 0.00 | 0.00 | 52 | 1014.4 |
| 20260504193549 | 20 | 190 | 14.5 | 24.1 | 0.00 | 0.00 | 0.00 | 51 | 1014.5 |
| 20260504193100 | 20 | 190 | 9.7 | 24.1 | 0.00 | 0.00 | 0.00 | 52 | 1014.5 |
| 20260504192549 | 20 | 190 | 8.0 | 20.9 | 0.00 | 0.00 | 0.00 | 52 | 1014.6 |
| 20260504192049 | 20 | 190 | 14.5 | 24.1 | 0.00 | 0.00 | 0.00 | 52 | 1014.6 |
| 20260504191554 | 19 | 190 | 14.5 | 25.7 | 0.00 | 0.00 | 0.00 | 51 | 1014.7 |
| 20260504191048 | 19 | 190 | 8.0 | 25.7 | 0.00 | 0.00 | 0.00 | 54 | 1014.6 |
| 20260504190548 | 19 | 190 | 9.7 | 17.7 | 0.00 | 0.00 | 0.00 | 52 | 1014.8 |
| 20260504190117 | 18 | 190 | 9.7 | 17.7 | 0.00 | 0.00 | 0.00 | 53 | 1014.9 |
| 20260504185547 | 18 | 190 | 6.4 | 20.9 | 0.00 | 0.00 | 0.00 | 53 | 1014.9 |
| 20260504185047 | 18 | 190 | 8.0 | 20.9 | 0.00 | 0.00 | 0.00 | 54 | 1015.0 |
| 20260504184558 | 18 | 190 | 8.0 | 20.9 | 0.00 | 0.00 | 0.00 | 53 | 1015.0 |
| 20260504184049 | 18 | 190 | 6.4 | 25.7 | 0.00 | 0.00 | 0.00 | 56 | 1015.0 |
| 20260504183548 | 18 | 190 | 11.3 | 25.7 | 0.00 | 0.00 | 0.00 | 54 | 1015.0 |
| 20260504183053 | 18 | 190 | 11.3 | 25.7 | 0.00 | 0.00 | 0.00 | 56 | 1015.1 |
| 20260504182548 | 18 | 190 | 6.4 | 22.5 | 0.00 | 0.00 | 0.00 | 54 | 1015.4 |
| 20260504182048 | 18 | 190 | 12.9 | 22.5 | 0.00 | 0.00 | 0.00 | 54 | 1015.4 |
| 20260504181558 | 18 | 190 | 11.3 | 22.5 | 0.00 | 0.00 | 0.00 | 54 | 1015.4 |
| 20260504181048 | 18 | 190 | 8.0 | 27.4 | 0.00 | 0.00 | 0.00 | 55 | 1015.5 |
| 20260504180547 | 18 | 190 | 14.5 | 27.4 | 0.00 | 0.00 | 0.00 | 55 | 1015.5 |
| 20260504180144 | 17 | 190 | 16.1 | 27.4 | 0.00 | 0.00 | 0.00 | 54 | 1015.6 |
| 20260504175549 | 17 | 190 | 14.5 | 24.1 | 0.00 | 0.00 | 0.00 | 55 | 1015.6 |
| 20260504175052 | 18 | 190 | 16.1 | 27.4 | 0.00 | 0.00 | 0.00 | 55 | 1015.6 |
| 20260504174553 | 18 | 190 | 16.1 | 27.4 | 0.00 | 0.00 | 0.00 | 55 | 1015.5 |
| 20260504174049 | 18 | 190 | 16.1 | 30.6 | 0.00 | 0.00 | 0.00 | 54 | 1015.4 |